ROMMA est une association bénévole à but non lucratif. Votre soutien est indispensable : ADHERER à ROMMA ou FAIRE un DON

Lans-en-Vercors - (38, Isère)

Vercors (990 m)   Longitude: 5° 33' 59'' E   Latitude: 45° 6' 3'' N Station partenaire n°80
 

Détail journalier du     <<     >>

Température Precipitation Humidité Pression Vent Dir Rafale Dir. rafale Ensol.
Heure (°C) (mm) (%) (hPa) (km/h) (km/h) (min)
01:00 0.4086101712N39NNE0
02:00 0.1087101713NNE26N0
03:00 -0.3089101710N23NNE0
04:00 -0.108910177NNO19NNE0
05:00 -0.309010175N15N0
06:00 -0.609010172N13NNO0
07:00 -0.609010175N13N0
08:00 -0.609010186N15NNE0
09:00 -0.208910187N18N0
10:00 0.808710188N23NNE0
11:00 2.7083101910NNE19NE10
12:00 3.907710198NNE19NE10
13:00 7.207210184NNE18NNE60
14:00 7.2070101815NNE34NNE60
15:00 8.3066101817NE34N60
16:00 9.6063101815NNE29NE60
17:00 8.3064101817NNE34NNE60
18:00 7.6065101817NNE32NNE30
19:00 7.2065101814NNE26NNE60
20:00 4.707210189NNE19NNE50
21:00 2.108110181NNE6NNE0
22:00 0.308410191NNE6NNE0
23:00 -1.4088101902NNE0
minuit -2.9089101900NNE0

Graphique du 31-03-2020

 

Serveur OMMA